Time;durP1;ratioP1;P1;durP2;ratioP2;P2;SDS_P1;SDS_P2;PMS_P1;PMS_P2;Temp;Humidity;BMP_temperature;BMP_pressure;BME280_temperature;BME280_humidity;BME280_pressure;Samples;Min_cycle;Max_cycle;Signal;HPM_P1;HPM_P2
2021/09/11 00:00:43;;;;;;;13.23;8.40;;;18.80;99.90;;;;;;5000944;28;20291;-51
2021/09/11 00:03:11;;;;;;;12.10;8.03;;;18.70;99.90;;;;;;4999882;28;21754;-50
2021/09/11 00:05:38;;;;;;;11.63;7.93;;;18.80;99.90;;;;;;4999323;28;20532;-51
2021/09/11 00:08:05;;;;;;;10.57;8.27;;;18.70;99.90;;;;;;5001276;28;20302;-51
2021/09/11 00:10:32;;;;;;;11.03;7.73;;;18.60;99.90;;;;;;4997942;28;20210;-50
2021/09/11 00:12:59;;;;;;;12.10;7.77;;;18.60;99.90;;;;;;4997851;28;20656;-51
2021/09/11 00:15:31;;;;;;;10.80;7.50;;;18.40;99.90;;;;;;5003593;28;20349;-50
2021/09/11 00:18:03;;;;;;;11.37;8.20;;;18.50;99.90;;;;;;5001532;28;20224;-51
2021/09/11 00:20:31;;;;;;;13.10;8.40;;;18.50;99.90;;;;;;4994851;28;20473;-51
2021/09/11 00:22:59;;;;;;;12.30;8.67;;;18.50;99.90;;;;;;5000308;28;20275;-51
2021/09/11 00:25:27;;;;;;;14.47;8.90;;;18.40;99.90;;;;;;4996315;28;20321;-51
2021/09/11 00:27:54;;;;;;;11.50;8.10;;;18.30;99.90;;;;;;5005179;28;20840;-51
2021/09/11 00:30:21;;;;;;;9.73;7.97;;;18.40;99.90;;;;;;5009896;28;20196;-51
2021/09/11 00:32:48;;;;;;;14.00;9.13;;;18.20;99.90;;;;;;5008609;28;20233;-51
2021/09/11 00:35:16;;;;;;;12.93;8.10;;;18.30;99.90;;;;;;5010405;28;20211;-51
2021/09/11 00:37:44;;;;;;;10.53;7.63;;;18.20;99.90;;;;;;5005594;28;20293;-51
2021/09/11 00:40:12;;;;;;;12.90;8.17;;;18.30;99.90;;;;;;5004032;28;20265;-51
2021/09/11 00:42:46;;;;;;;13.47;8.50;;;18.10;99.90;;;;;;5003905;28;20459;-51
2021/09/11 00:45:16;;;;;;;11.47;7.87;;;18.10;99.90;;;;;;5006080;28;20287;-50
2021/09/11 00:47:42;;;;;;;11.90;8.67;;;18.20;99.90;;;;;;5006610;28;20227;-51
2021/09/11 00:50:10;;;;;;;10.07;8.57;;;18.20;99.90;;;;;;5010521;28;20296;-51
2021/09/11 00:52:39;;;;;;;13.27;9.17;;;18.20;99.90;;;;;;5008841;28;20282;-51
2021/09/11 00:55:08;;;;;;;12.03;8.40;;;18.20;99.90;;;;;;5006250;28;20630;-51
2021/09/11 00:57:37;;;;;;;12.60;8.87;;;18.00;99.90;;;;;;5006045;28;20298;-51
2021/09/11 01:00:05;;;;;;;11.37;8.90;;;17.90;99.90;;;;;;5008421;28;20929;-51
2021/09/11 01:02:32;;;;;;;12.70;9.17;;;17.90;99.90;;;;;;5004424;28;20195;-51
2021/09/11 01:04:59;;;;;;;11.17;8.73;;;17.90;99.90;;;;;;5011098;28;20220;-51
2021/09/11 01:07:26;;;;;;;11.00;8.60;;;18.00;99.90;;;;;;5002067;28;20954;-51
2021/09/11 01:09:53;;;;;;;13.13;8.83;;;18.10;99.90;;;;;;5005954;28;20230;-51
2021/09/11 01:12:20;;;;;;;11.43;8.43;;;17.90;99.90;;;;;;5005000;28;20709;-51
2021/09/11 01:14:47;;;;;;;12.83;8.03;;;17.70;99.90;;;;;;5008046;28;20268;-51
2021/09/11 01:17:16;;;;;;;12.60;7.87;;;17.70;99.90;;;;;;5005055;28;20197;-51
2021/09/11 01:19:44;;;;;;;11.67;7.77;;;17.60;99.90;;;;;;5006695;28;20224;-51
2021/09/11 01:22:15;;;;;;;12.63;8.23;;;17.70;99.90;;;;;;5007900;28;20364;-51
2021/09/11 01:24:55;;;;;;;12.13;8.63;;;17.70;99.90;;;;;;5007810;28;20246;-51
2021/09/11 01:27:22;;;;;;;13.20;8.10;;;17.70;99.90;;;;;;5007036;28;20304;-51
2021/09/11 01:29:58;;;;;;;13.50;7.60;;;17.70;99.90;;;;;;5011429;28;20778;-51
2021/09/11 01:32:26;;;;;;;14.03;8.83;;;17.70;99.90;;;;;;5002212;28;20589;-51
2021/09/11 01:34:52;;;;;;;10.37;8.17;;;17.50;99.90;;;;;;5002976;28;21791;-51
2021/09/11 01:37:19;;;;;;;11.63;7.87;;;17.60;99.90;;;;;;5007641;28;20288;-51
2021/09/11 01:39:48;;;;;;;14.57;8.53;;;17.40;99.90;;;;;;5001665;28;20301;-51
2021/09/11 01:42:19;;;;;;;11.53;8.33;;;17.30;99.90;;;;;;5007469;28;20285;-51
2021/09/11 01:44:50;;;;;;;12.50;7.87;;;17.30;99.90;;;;;;5005352;28;20275;-51
2021/09/11 01:47:17;;;;;;;12.50;8.03;;;17.30;99.90;;;;;;5006641;28;20634;-51
2021/09/11 01:49:44;;;;;;;13.73;7.70;;;17.40;99.90;;;;;;5005153;28;20244;-51
2021/09/11 01:52:12;;;;;;;12.97;9.00;;;17.40;99.90;;;;;;5005389;28;20297;-51
2021/09/11 01:54:39;;;;;;;13.10;8.83;;;17.20;99.90;;;;;;4998454;28;20241;-51
2021/09/11 01:57:08;;;;;;;11.80;8.30;;;17.30;99.90;;;;;;5009989;28;20245;-51
2021/09/11 01:59:35;;;;;;;13.40;8.83;;;17.20;99.90;;;;;;5008325;28;20219;-51
2021/09/11 02:02:04;;;;;;;13.03;8.90;;;17.30;99.90;;;;;;5002317;28;20292;-51
2021/09/11 02:04:31;;;;;;;20.53;9.37;;;17.30;99.90;;;;;;5004711;28;20211;-51
2021/09/11 02:06:58;;;;;;;12.47;8.60;;;17.40;99.90;;;;;;5007233;28;20241;-51
2021/09/11 02:09:25;;;;;;;13.13;8.37;;;17.50;99.90;;;;;;5001450;28;20469;-51
2021/09/11 02:11:52;;;;;;;13.03;8.33;;;17.50;99.90;;;;;;5008296;28;20236;-51
2021/09/11 02:14:19;;;;;;;13.70;8.07;;;17.50;99.90;;;;;;5007144;28;20331;-51
2021/09/11 02:16:46;;;;;;;10.60;8.30;;;17.50;99.90;;;;;;5007938;28;20555;-51
2021/09/11 02:19:13;;;;;;;14.30;9.20;;;17.50;99.90;;;;;;5004769;28;20718;-51
2021/09/11 02:21:40;;;;;;;15.47;9.27;;;17.50;99.90;;;;;;5002190;28;20316;-51
2021/09/11 02:24:07;;;;;;;11.27;8.37;;;17.50;99.90;;;;;;5003703;28;20280;-51
2021/09/11 02:26:34;;;;;;;15.70;9.70;;;17.50;99.90;;;;;;5002908;28;20201;-51
2021/09/11 02:29:03;;;;;;;16.77;9.83;;;17.50;99.90;;;;;;5007079;28;20300;-51
2021/09/11 02:31:30;;;;;;;11.97;8.43;;;17.50;99.90;;;;;;5003727;28;20266;-51
2021/09/11 02:33:57;;;;;;;14.80;9.07;;;17.50;99.90;;;;;;5005827;28;20240;-51
2021/09/11 02:36:24;;;;;;;14.53;8.77;;;17.40;99.90;;;;;;5005682;28;20812;-51
2021/09/11 02:38:51;;;;;;;16.20;9.23;;;17.40;99.90;;;;;;5009137;28;20314;-51
2021/09/11 02:41:18;;;;;;;13.57;8.97;;;17.40;99.90;;;;;;5003876;28;20665;-51
2021/09/11 02:43:45;;;;;;;12.27;9.43;;;17.40;99.90;;;;;;5004451;28;20227;-51
2021/09/11 02:46:11;;;;;;;13.77;9.37;;;17.40;99.90;;;;;;5007365;28;20288;-51
2021/09/11 02:48:38;;;;;;;13.80;9.80;;;17.40;99.90;;;;;;5005611;28;20685;-52
2021/09/11 02:51:05;;;;;;;11.83;9.20;;;17.30;99.90;;;;;;5003828;28;20217;-51
2021/09/11 02:53:32;;;;;;;12.87;9.63;;;17.30;99.90;;;;;;5001985;28;20295;-52
2021/09/11 02:55:58;;;;;;;13.83;9.23;;;17.30;99.90;;;;;;4994240;28;20987;-51
2021/09/11 02:58:25;;;;;;;11.30;9.50;;;17.10;99.90;;;;;;5015266;28;20466;-51
2021/09/11 03:00:52;;;;;;;14.13;9.10;;;17.20;99.90;;;;;;5005621;28;20231;-51
2021/09/11 03:03:19;;;;;;;12.77;9.30;;;17.20;99.90;;;;;;5009314;28;20202;-51
2021/09/11 03:05:46;;;;;;;12.10;8.37;;;17.10;99.90;;;;;;5015157;28;20283;-51
2021/09/11 03:08:14;;;;;;;13.90;8.83;;;17.20;99.90;;;;;;5008594;28;20200;-51
2021/09/11 03:10:45;;;;;;;12.67;9.67;;;17.20;99.90;;;;;;5008698;28;20642;-51
2021/09/11 03:13:12;;;;;;;14.83;9.73;;;17.20;99.90;;;;;;5005569;28;20250;-51
2021/09/11 03:15:39;;;;;;;14.50;9.17;;;17.10;99.90;;;;;;5002529;28;20282;-51
2021/09/11 03:18:05;;;;;;;14.80;8.77;;;17.20;99.90;;;;;;5007267;28;20228;-51
2021/09/11 03:20:32;;;;;;;12.10;8.53;;;17.20;99.90;;;;;;5002662;28;20295;-51
2021/09/11 03:22:59;;;;;;;12.83;9.10;;;17.10;99.90;;;;;;5003511;28;20652;-51
2021/09/11 03:25:26;;;;;;;12.83;8.43;;;17.10;99.90;;;;;;4999333;28;20290;-51
2021/09/11 03:27:52;;;;;;;12.67;8.27;;;17.10;99.90;;;;;;5002317;28;20656;-52
2021/09/11 03:30:19;;;;;;;11.83;8.03;;;17.10;99.90;;;;;;5008458;28;20678;-51
2021/09/11 03:32:46;;;;;;;11.70;8.63;;;17.10;99.90;;;;;;5007079;28;20306;-51
2021/09/11 03:35:13;;;;;;;13.37;7.90;;;17.10;99.90;;;;;;5005378;28;20663;-51
2021/09/11 03:37:40;;;;;;;10.97;8.00;;;17.20;99.90;;;;;;5004595;28;20694;-51
2021/09/11 03:40:08;;;;;;;11.67;8.07;;;17.00;99.90;;;;;;5000121;28;20237;-51
2021/09/11 03:42:35;;;;;;;12.70;7.93;;;16.90;99.90;;;;;;5003990;28;20236;-51
2021/09/11 03:45:02;;;;;;;13.43;7.60;;;17.10;99.90;;;;;;5005949;28;20288;-51
2021/09/11 03:47:29;;;;;;;12.07;7.67;;;17.00;99.90;;;;;;5006559;28;20289;-51
2021/09/11 03:49:55;;;;;;;9.57;7.60;;;17.00;99.90;;;;;;5007765;28;20201;-51
2021/09/11 03:52:22;;;;;;;8.60;7.07;;;16.90;99.90;;;;;;5005954;28;20633;-51
2021/09/11 03:54:49;;;;;;;12.10;7.87;;;17.00;99.90;;;;;;5000863;28;20350;-51
2021/09/11 03:57:16;;;;;;;12.73;6.83;;;16.80;99.90;;;;;;5007530;28;20281;-51
2021/09/11 03:59:42;;;;;;;9.67;7.47;;;16.80;99.90;;;;;;5006369;28;20664;-51
2021/09/11 04:02:09;;;;;;;10.87;7.63;;;16.90;99.90;;;;;;5009429;28;20210;-51
2021/09/11 04:04:36;;;;;;;10.93;7.83;;;16.90;99.90;;;;;;5006808;28;20220;-51
2021/09/11 04:07:03;;;;;;;12.23;7.53;;;16.90;99.90;;;;;;5004426;28;20588;-51
2021/09/11 04:09:30;;;;;;;11.63;7.27;;;17.00;99.90;;;;;;5010209;28;21046;-51
2021/09/11 04:11:57;;;;;;;11.10;8.30;;;17.00;99.90;;;;;;5004512;28;20248;-51
2021/09/11 04:14:23;;;;;;;9.90;6.90;;;16.90;99.90;;;;;;5009670;28;20286;-50
2021/09/11 04:16:50;;;;;;;12.00;7.17;;;16.90;99.90;;;;;;5004350;28;20667;-51
2021/09/11 04:19:18;;;;;;;11.57;7.50;;;16.90;99.90;;;;;;5006860;28;20681;-51
2021/09/11 04:21:44;;;;;;;10.87;7.43;;;17.00;99.90;;;;;;5006076;28;20289;-51
2021/09/11 04:24:11;;;;;;;11.80;7.43;;;16.80;99.90;;;;;;5010062;28;20287;-51
2021/09/11 04:26:38;;;;;;;14.00;7.00;;;16.90;99.90;;;;;;5010752;28;20286;-51
2021/09/11 04:29:05;;;;;;;11.40;6.50;;;16.80;99.90;;;;;;5007099;28;20284;-51
2021/09/11 04:31:33;;;;;;;10.17;6.27;;;16.80;99.90;;;;;;5008976;28;20321;-51
2021/09/11 04:34:00;;;;;;;11.20;7.10;;;16.80;99.90;;;;;;5009581;28;20306;-51
2021/09/11 04:36:26;;;;;;;9.07;6.90;;;16.90;99.90;;;;;;5003013;28;20208;-51
2021/09/11 04:38:53;;;;;;;10.57;7.07;;;16.90;99.90;;;;;;5005650;28;20257;-51
2021/09/11 04:41:20;;;;;;;11.00;7.43;;;16.90;99.90;;;;;;5008562;28;20303;-51
2021/09/11 04:43:47;;;;;;;10.33;6.63;;;17.00;99.90;;;;;;5008979;28;20285;-51
2021/09/11 04:46:13;;;;;;;13.83;7.23;;;17.00;99.90;;;;;;5007927;28;20301;-51
2021/09/11 04:48:40;;;;;;;10.37;6.87;;;17.00;99.90;;;;;;5012306;28;20672;-51
2021/09/11 04:51:07;;;;;;;11.60;7.07;;;16.90;99.90;;;;;;5002426;28;20236;-52
2021/09/11 04:53:34;;;;;;;10.17;6.50;;;17.00;99.90;;;;;;5010267;28;20582;-51
2021/09/11 04:56:00;;;;;;;12.97;6.67;;;17.00;99.90;;;;;;5008977;28;20236;-51
2021/09/11 04:58:27;;;;;;;10.17;6.60;;;17.00;99.90;;;;;;5010434;28;20295;-51
2021/09/11 05:00:54;;;;;;;8.93;6.60;;;17.00;99.90;;;;;;5004475;28;20293;-51
2021/09/11 05:03:21;;;;;;;11.40;6.50;;;17.00;99.90;;;;;;5006396;28;20274;-51
2021/09/11 05:05:48;;;;;;;10.90;6.53;;;17.00;99.90;;;;;;5002015;28;20257;-51
2021/09/11 05:08:17;;;;;;;9.97;6.07;;;17.00;99.90;;;;;;5006427;28;20203;-51
2021/09/11 05:10:45;;;;;;;9.20;6.50;;;16.90;99.90;;;;;;5010595;28;20648;-51
2021/09/11 05:13:13;;;;;;;10.70;7.00;;;16.90;99.90;;;;;;5011069;28;20667;-51
2021/09/11 05:15:40;;;;;;;9.07;5.60;;;16.90;99.90;;;;;;5005945;28;20328;-51
2021/09/11 05:18:07;;;;;;;10.37;5.87;;;16.70;99.90;;;;;;5008358;28;20206;-51
2021/09/11 05:20:34;;;;;;;9.93;6.10;;;16.70;99.90;;;;;;5002285;28;20707;-51
2021/09/11 05:23:01;;;;;;;10.67;5.73;;;16.80;99.90;;;;;;5006097;28;20641;-51
2021/09/11 05:25:27;;;;;;;10.23;6.47;;;16.90;99.90;;;;;;5001127;28;20226;-51
2021/09/11 05:27:55;;;;;;;8.80;6.00;;;16.90;99.90;;;;;;5011883;28;20193;-51
2021/09/11 05:30:21;;;;;;;9.33;6.17;;;16.80;99.90;;;;;;5005639;28;20239;-51
2021/09/11 05:32:48;;;;;;;9.90;5.70;;;16.90;99.90;;;;;;5005667;28;20315;-51
2021/09/11 05:35:16;;;;;;;13.30;5.97;;;16.90;99.90;;;;;;5007809;28;20724;-51
2021/09/11 05:37:43;;;;;;;11.57;5.73;;;17.00;99.90;;;;;;5004484;28;20257;-51
2021/09/11 05:40:10;;;;;;;13.67;6.03;;;17.00;99.90;;;;;;5001429;28;20220;-51
2021/09/11 05:42:37;;;;;;;10.07;5.83;;;16.90;99.90;;;;;;5005560;28;20287;-52
2021/09/11 05:45:05;;;;;;;12.30;5.80;;;16.90;99.90;;;;;;5015732;28;20198;-51
2021/09/11 05:47:33;;;;;;;11.30;5.60;;;16.80;99.90;;;;;;5012142;28;20198;-51
2021/09/11 05:50:00;;;;;;;9.57;5.30;;;16.80;99.90;;;;;;5010858;28;20324;-51
2021/09/11 05:52:27;;;;;;;7.60;5.33;;;16.90;99.90;;;;;;5006273;28;20293;-51
2021/09/11 05:54:54;;;;;;;9.27;5.77;;;16.90;99.90;;;;;;4998097;28;20237;-51
2021/09/11 05:57:24;;;;;;;11.13;6.00;;;16.90;99.90;;;;;;4993369;28;20208;-51
2021/09/11 05:59:51;;;;;;;12.67;5.83;;;17.00;99.90;;;;;;5013679;28;20298;-51
2021/09/11 06:02:18;;;;;;;9.70;6.00;;;16.90;99.90;;;;;;5002678;28;20221;-51
2021/09/11 06:04:45;;;;;;;9.57;5.87;;;17.10;99.90;;;;;;5007586;28;20203;-51
2021/09/11 06:07:12;;;;;;;8.60;5.50;;;17.00;99.90;;;;;;5005301;28;20295;-51
2021/09/11 06:09:39;;;;;;;8.37;5.33;;;17.10;99.90;;;;;;5008563;28;20297;-51
2021/09/11 06:12:10;;;;;;;10.37;5.67;;;17.10;99.90;;;;;;5006526;28;20248;-51
2021/09/11 06:14:38;;;;;;;8.13;5.27;;;17.20;99.90;;;;;;5004562;28;20321;-51
2021/09/11 06:17:07;;;;;;;10.07;5.70;;;17.20;99.90;;;;;;5011526;28;20562;-51
2021/09/11 06:19:35;;;;;;;7.83;5.50;;;17.20;99.90;;;;;;5006586;28;20224;-52
2021/09/11 06:22:03;;;;;;;10.47;6.07;;;17.20;99.90;;;;;;5011444;28;20293;-51
2021/09/11 06:24:29;;;;;;;8.23;5.40;;;17.20;99.90;;;;;;5002744;28;20339;-51
2021/09/11 06:26:56;;;;;;;8.77;5.10;;;17.30;99.90;;;;;;5009481;28;20323;-51
2021/09/11 06:29:23;;;;;;;12.37;5.43;;;17.20;99.90;;;;;;5012160;28;20234;-51
2021/09/11 06:31:50;;;;;;;12.87;5.60;;;17.20;99.90;;;;;;5009129;28;20761;-52
2021/09/11 06:34:17;;;;;;;8.97;5.73;;;17.20;99.90;;;;;;5005336;28;20259;-51
2021/09/11 06:36:44;;;;;;;8.93;6.00;;;17.10;99.90;;;;;;5003340;28;20330;-51
2021/09/11 06:39:10;;;;;;;11.50;6.40;;;17.10;99.90;;;;;;5002337;28;20683;-51
2021/09/11 06:41:37;;;;;;;8.60;5.73;;;17.00;99.90;;;;;;5007855;28;20231;-52
2021/09/11 06:44:04;;;;;;;9.90;5.37;;;17.00;99.90;;;;;;5008661;28;20204;-50
2021/09/11 06:46:32;;;;;;;11.67;6.60;;;17.00;99.90;;;;;;5003371;28;20234;-51
2021/09/11 06:48:59;;;;;;;11.83;6.27;;;17.10;99.90;;;;;;4994650;28;20291;-51
2021/09/11 06:51:26;;;;;;;9.40;5.87;;;17.10;99.90;;;;;;4996197;28;20220;-51
2021/09/11 06:53:52;;;;;;;11.20;6.23;;;17.00;99.90;;;;;;4998476;28;20331;-51
2021/09/11 06:56:19;;;;;;;8.17;5.70;;;17.10;99.90;;;;;;4995337;28;20208;-51
2021/09/11 06:58:46;;;;;;;11.93;6.43;;;17.20;99.90;;;;;;5009532;28;20228;-51
2021/09/11 07:01:13;;;;;;;12.97;6.07;;;17.10;99.90;;;;;;4991351;28;20959;-51
2021/09/11 07:03:40;;;;;;;15.13;6.97;;;17.10;99.90;;;;;;4986078;28;20288;-51
2021/09/11 07:06:12;;;;;;;7.50;6.00;;;17.10;99.90;;;;;;4992857;28;20207;-51
2021/09/11 07:08:39;;;;;;;12.90;6.50;;;17.10;99.90;;;;;;4996038;28;20245;-51
2021/09/11 07:11:13;;;;;;;9.57;6.83;;;17.20;99.90;;;;;;4989482;28;20300;-51
2021/09/11 07:13:40;;;;;;;8.97;6.50;;;17.30;99.90;;;;;;4990965;28;20240;-51
2021/09/11 07:16:07;;;;;;;9.23;5.97;;;17.50;99.90;;;;;;5001595;28;20551;-51
2021/09/11 07:18:34;;;;;;;11.80;6.97;;;17.60;99.90;;;;;;4990002;28;20313;-51
2021/09/11 07:21:03;;;;;;;9.07;6.17;;;17.60;99.90;;;;;;4995166;28;20214;-51
2021/09/11 07:23:30;;;;;;;8.00;6.37;;;17.80;99.90;;;;;;4994995;28;20201;-51
2021/09/11 07:25:57;;;;;;;12.90;7.83;;;17.90;99.90;;;;;;4988983;28;20570;-51
2021/09/11 07:28:23;;;;;;;16.27;7.10;;;18.00;99.90;;;;;;4995492;28;20204;-51
2021/09/11 07:30:50;;;;;;;12.00;7.23;;;17.80;99.90;;;;;;4991264;28;20297;-51
2021/09/11 07:33:17;;;;;;;14.43;7.67;;;17.70;99.90;;;;;;4993360;28;20270;-51
2021/09/11 07:35:44;;;;;;;12.47;8.40;;;17.60;99.90;;;;;;4996744;28;20297;-51
2021/09/11 07:38:13;;;;;;;18.17;8.47;;;17.70;99.90;;;;;;4999890;28;20204;-51
2021/09/11 07:40:40;;;;;;;9.53;7.53;;;17.80;99.90;;;;;;5000280;28;20307;-51
2021/09/11 07:43:06;;;;;;;11.87;8.03;;;17.80;99.90;;;;;;5006145;28;20238;-51
2021/09/11 07:45:33;;;;;;;14.20;8.47;;;17.80;99.90;;;;;;5011654;28;20296;-51
2021/09/11 07:48:00;;;;;;;12.70;9.10;;;17.90;99.90;;;;;;5005535;28;20220;-51
2021/09/11 07:50:28;;;;;;;13.30;9.00;;;18.20;99.90;;;;;;4999207;28;20661;-52
2021/09/11 07:52:55;;;;;;;14.60;9.20;;;18.10;99.90;;;;;;5003479;28;20201;-52
2021/09/11 07:55:22;;;;;;;14.50;8.70;;;18.00;99.90;;;;;;5002055;28;20292;-51
2021/09/11 07:57:49;;;;;;;16.00;9.40;;;18.10;99.90;;;;;;5003654;28;20303;-51
2021/09/11 08:00:18;;;;;;;17.27;9.37;;;18.20;99.90;;;;;;4999626;28;20345;-51
2021/09/11 08:02:45;;;;;;;12.53;9.50;;;18.20;99.90;;;;;;5018669;28;20262;-51
2021/09/11 08:05:13;;;;;;;19.23;10.43;;;18.20;99.90;;;;;;5003416;28;20306;-51
2021/09/11 08:07:40;;;;;;;15.30;8.77;;;18.20;99.90;;;;;;5004932;28;20338;-51
2021/09/11 08:10:07;;;;;;;16.50;11.00;;;18.30;99.90;;;;;;5005623;28;20212;-51
2021/09/11 08:12:34;;;;;;;16.03;11.30;;;18.30;99.90;;;;;;5006916;28;20664;-51
2021/09/11 08:15:03;;;;;;;16.57;10.90;;;18.20;99.90;;;;;;5024885;28;20242;-51
2021/09/11 08:17:30;;;;;;;15.13;10.40;;;18.10;99.90;;;;;;5002769;28;20204;-51
2021/09/11 08:19:57;;;;;;;17.33;12.57;;;18.30;99.90;;;;;;5002987;28;20675;-51
2021/09/11 08:22:24;;;;;;;15.47;11.80;;;18.20;99.90;;;;;;5006029;28;20292;-51
2021/09/11 08:24:53;;;;;;;19.90;12.43;;;18.20;99.90;;;;;;5004012;28;20297;-51
2021/09/11 08:27:20;;;;;;;20.97;12.07;;;18.20;99.90;;;;;;5006521;28;20285;-52
2021/09/11 08:29:47;;;;;;;20.90;12.53;;;18.30;99.90;;;;;;4998667;28;20228;-51
2021/09/11 08:32:13;;;;;;;20.97;12.33;;;18.30;99.90;;;;;;5004584;28;20313;-51
2021/09/11 08:34:40;;;;;;;18.40;11.63;;;18.30;99.90;;;;;;4999317;28;20205;-51
2021/09/11 08:37:07;;;;;;;17.03;11.77;;;18.30;99.90;;;;;;5006179;28;20647;-51
2021/09/11 08:39:34;;;;;;;17.57;11.63;;;18.30;99.90;;;;;;5004684;28;20274;-51
2021/09/11 08:42:01;;;;;;;17.93;12.67;;;18.40;99.90;;;;;;5007824;28;20753;-51
2021/09/11 08:44:28;;;;;;;21.43;12.97;;;18.40;99.90;;;;;;4998390;28;20344;-51
2021/09/11 08:46:55;;;;;;;18.93;13.00;;;18.40;99.90;;;;;;4998348;28;20258;-51
2021/09/11 08:49:22;;;;;;;18.30;12.07;;;18.40;99.90;;;;;;4999086;28;20300;-51
2021/09/11 08:51:50;;;;;;;18.63;11.67;;;18.40;99.90;;;;;;5001934;28;20202;-51
2021/09/11 08:54:20;;;;;;;14.80;11.87;;;18.50;99.90;;;;;;4998377;28;22167;-51
2021/09/11 08:56:49;;;;;;;15.73;12.00;;;18.50;99.90;;;;;;4998316;28;20305;-51
2021/09/11 08:59:18;;;;;;;19.27;12.23;;;18.50;99.90;;;;;;4993570;28;20230;-51
2021/09/11 09:02:06;;;;;;;15.77;12.00;;;18.60;99.90;;;;;;5000326;28;20275;-51
2021/09/11 09:04:45;;;;;;;18.70;12.27;;;18.50;99.90;;;;;;4998111;28;20298;-51
2021/09/11 09:07:27;;;;;;;20.00;11.87;;;18.60;99.90;;;;;;4996243;28;20276;-51
2021/09/11 09:10:07;;;;;;;18.80;12.77;;;18.70;99.90;;;;;;4995600;28;20704;-51
2021/09/11 09:12:40;;;;;;;18.40;13.10;;;18.60;99.90;;;;;;5013857;28;20205;-51
2021/09/11 09:15:12;;;;;;;18.83;13.00;;;18.60;99.90;;;;;;4997138;28;20241;-51
2021/09/11 09:17:57;;;;;;;21.47;14.30;;;18.60;99.90;;;;;;4999947;28;20431;-51
2021/09/11 09:20:29;;;;;;;19.13;12.87;;;18.70;99.90;;;;;;4996311;28;20336;-51
2021/09/11 09:22:59;;;;;;;16.50;12.37;;;18.80;99.90;;;;;;4995904;28;20622;-51
2021/09/11 09:25:34;;;;;;;18.70;12.73;;;18.80;99.90;;;;;;4992242;28;20217;-51
2021/09/11 09:28:02;;;;;;;18.93;13.30;;;18.80;99.90;;;;;;5001550;28;20342;-51
2021/09/11 09:30:40;;;;;;;19.07;14.03;;;18.90;99.90;;;;;;4996811;28;20236;-51
2021/09/11 09:33:09;;;;;;;19.80;13.20;;;18.90;99.90;;;;;;4995824;28;20335;-51
2021/09/11 09:35:36;;;;;;;20.37;14.47;;;18.90;99.90;;;;;;4994992;28;20310;-52
2021/09/11 09:38:08;;;;;;;19.13;13.97;;;19.10;99.90;;;;;;4995961;28;20260;-51
2021/09/11 09:40:46;;;;;;;21.13;14.50;;;19.10;99.90;;;;;;4995320;28;20306;-51
2021/09/11 09:43:29;;;;;;;18.27;13.70;;;19.00;99.90;;;;;;4997779;28;20297;-51
2021/09/11 09:46:07;;;;;;;18.67;14.67;;;19.10;99.90;;;;;;4995812;28;20219;-51
2021/09/11 09:48:36;;;;;;;17.97;14.37;;;19.20;99.90;;;;;;4989322;28;20207;-52
2021/09/11 09:51:17;;;;;;;21.13;14.10;;;19.10;99.90;;;;;;5000476;28;20267;-51
2021/09/11 09:53:47;;;;;;;20.27;14.20;;;19.20;99.90;;;;;;4993130;28;20296;-51
2021/09/11 09:56:14;;;;;;;15.90;12.87;;;19.20;99.90;;;;;;5002012;28;20299;-51
2021/09/11 09:58:41;;;;;;;20.10;14.90;;;19.20;99.90;;;;;;4997015;28;20632;-51
2021/09/11 10:01:08;;;;;;;20.23;13.07;;;19.10;99.90;;;;;;5000756;28;20311;-51
2021/09/11 10:03:35;;;;;;;18.80;14.90;;;19.10;99.90;;;;;;4997946;28;20197;-51
2021/09/11 10:06:21;;;;;;;18.93;13.40;;;19.30;99.90;;;;;;5000266;28;20224;-51
2021/09/11 10:08:58;;;;;;;17.97;13.90;;;19.50;99.90;;;;;;4999302;28;20207;-52
2021/09/11 10:11:38;;;;;;;19.50;12.77;;;19.60;99.90;;;;;;5016517;28;20305;-51
2021/09/11 10:14:11;;;;;;;18.47;14.00;;;19.60;99.90;;;;;;5004127;28;20276;-52
2021/09/11 10:16:42;;;;;;;19.17;13.20;;;19.50;99.90;;;;;;5004051;28;20288;-52
2021/09/11 10:19:19;;;;;;;19.10;13.73;;;19.50;99.90;;;;;;4996022;28;21070;-52
2021/09/11 10:21:48;;;;;;;18.60;12.93;;;19.50;99.90;;;;;;4999795;28;20250;-52
2021/09/11 10:24:18;;;;;;;18.97;14.07;;;19.50;99.90;;;;;;5000617;28;20281;-52
2021/09/11 10:27:09;;;;;;;17.60;13.20;;;19.50;99.90;;;;;;5006488;28;20201;-52
2021/09/11 10:29:39;;;;;;;16.97;13.00;;;19.50;99.90;;;;;;5002245;28;20544;-51
2021/09/11 10:32:15;;;;;;;17.33;13.33;;;19.60;99.90;;;;;;4997762;28;20281;-52
2021/09/11 10:35:01;;;;;;;18.87;13.10;;;19.70;99.90;;;;;;4995731;28;20295;-52
2021/09/11 10:37:47;;;;;;;14.07;11.90;;;19.80;99.90;;;;;;5010221;28;20213;-52
2021/09/11 10:40:37;;;;;;;16.97;13.33;;;19.90;99.90;;;;;;4998069;28;20319;-51
2021/09/11 10:43:19;;;;;;;18.17;13.30;;;19.90;99.90;;;;;;4999887;28;20202;-52
2021/09/11 10:46:08;;;;;;;14.57;12.93;;;20.00;99.90;;;;;;4995382;28;20281;-52
2021/09/11 10:48:44;;;;;;;16.23;11.83;;;20.00;99.90;;;;;;4994959;28;20843;-52
2021/09/11 10:51:12;;;;;;;17.47;12.83;;;20.10;99.90;;;;;;4997326;28;20221;-51
2021/09/11 10:53:39;;;;;;;15.77;12.80;;;20.00;99.90;;;;;;5000340;28;20323;-52
2021/09/11 10:56:26;;;;;;;15.67;12.30;;;19.90;99.90;;;;;;5000982;28;20292;-52
2021/09/11 10:59:15;;;;;;;15.57;11.63;;;20.00;99.90;;;;;;4998984;28;20318;-52
2021/09/11 11:02:02;;;;;;;14.33;11.47;;;20.00;99.90;;;;;;4996278;28;20463;-52
2021/09/11 11:04:48;;;;;;;15.07;12.20;;;19.90;99.90;;;;;;5005095;28;20288;-52
2021/09/11 11:07:18;;;;;;;14.83;11.80;;;19.90;99.90;;;;;;4995571;28;20233;-50
2021/09/11 11:09:54;;;;;;;19.23;11.70;;;19.80;99.90;;;;;;4998790;28;20665;-53
2021/09/11 11:12:30;;;;;;;13.83;12.33;;;19.80;99.90;;;;;;5012805;28;20264;-51
2021/09/11 11:15:03;;;;;;;14.60;10.87;;;19.90;99.90;;;;;;5004360;28;20228;-51
2021/09/11 11:17:31;;;;;;;15.10;11.47;;;20.00;99.90;;;;;;5012122;28;20194;-50
2021/09/11 11:19:58;;;;;;;12.07;10.83;;;20.00;99.90;;;;;;4998583;28;20247;-51
2021/09/11 11:22:28;;;;;;;14.40;11.50;;;20.00;99.90;;;;;;5000062;28;20221;-53
2021/09/11 11:24:55;;;;;;;14.60;11.97;;;20.10;99.90;;;;;;4995426;28;20744;-50
2021/09/11 11:27:25;;;;;;;11.83;10.00;;;20.10;99.90;;;;;;4999970;28;20649;-51
2021/09/11 11:29:54;;;;;;;13.47;10.97;;;20.10;99.90;;;;;;4997945;28;20243;-50
2021/09/11 11:32:24;;;;;;;10.27;8.80;;;20.20;99.90;;;;;;4995550;28;20759;-50
2021/09/11 11:34:59;;;;;;;11.30;9.03;;;20.30;99.90;;;;;;4999542;28;20324;-51
2021/09/11 11:37:29;;;;;;;9.00;7.10;;;20.40;99.90;;;;;;4999257;28;20251;-50
2021/09/11 11:40:16;;;;;;;6.33;5.63;;;20.40;99.90;;;;;;4997416;28;20229;-51
2021/09/11 11:42:44;;;;;;;8.57;5.57;;;20.20;99.90;;;;;;4998070;28;20245;-51
2021/09/11 11:45:14;;;;;;;5.53;5.03;;;20.10;99.90;;;;;;5003239;28;20231;-50
2021/09/11 11:48:07;;;;;;;6.43;5.77;;;20.20;99.90;;;;;;5009899;28;20201;-51
2021/09/11 11:50:36;;;;;;;7.20;5.20;;;20.30;99.90;;;;;;4997724;28;20225;-51
2021/09/11 11:53:11;;;;;;;6.73;5.53;;;20.30;99.90;;;;;;5000638;28;20897;-51
2021/09/11 11:55:49;;;;;;;6.23;5.63;;;20.30;99.90;;;;;;4990397;28;20524;-51
2021/09/11 11:58:21;;;;;;;8.10;5.70;;;20.40;99.90;;;;;;5002065;28;20703;-51
2021/09/11 12:00:56;;;;;;;6.67;5.67;;;20.60;99.90;;;;;;4996722;28;20645;-51
2021/09/11 12:03:43;;;;;;;6.97;5.53;;;20.70;99.90;;;;;;4997923;28;20243;-51
2021/09/11 12:06:20;;;;;;;7.47;6.03;;;20.80;99.90;;;;;;4996203;28;20573;-51
2021/09/11 12:08:48;;;;;;;8.03;5.60;;;20.80;99.90;;;;;;4997305;28;20250;-51
2021/09/11 12:11:22;;;;;;;6.30;5.70;;;20.90;99.90;;;;;;4992680;28;20212;-51
2021/09/11 12:13:51;;;;;;;10.60;6.27;;;21.00;99.90;;;;;;4998174;28;20344;-51
2021/09/11 12:16:19;;;;;;;5.97;5.37;;;21.00;99.90;;;;;;5006819;28;20220;-51
2021/09/11 12:18:46;;;;;;;5.77;5.17;;;21.30;99.90;;;;;;5007714;28;20204;-51
2021/09/11 12:21:15;;;;;;;6.23;4.60;;;21.20;99.90;;;;;;5006461;28;20264;-50
2021/09/11 12:23:50;;;;;;;6.20;5.53;;;21.20;99.90;;;;;;4997647;28;20197;-50
2021/09/11 12:26:30;;;;;;;6.10;5.50;;;21.00;99.90;;;;;;5001295;28;20320;-50
2021/09/11 12:29:12;;;;;;;7.93;6.53;;;20.90;99.90;;;;;;5009469;28;20254;-50
2021/09/11 12:31:40;;;;;;;7.13;6.43;;;20.80;99.90;;;;;;5004405;28;20264;-51
2021/09/11 12:34:18;;;;;;;8.40;6.67;;;20.80;99.90;;;;;;5000198;28;20300;-50
2021/09/11 12:36:48;;;;;;;7.47;6.73;;;20.80;99.90;;;;;;5001933;28;20286;-50
2021/09/11 12:39:15;;;;;;;9.50;7.27;;;20.80;99.90;;;;;;5003476;28;20297;-50
2021/09/11 12:41:49;;;;;;;10.20;8.57;;;20.80;99.90;;;;;;5000572;28;20524;-51
2021/09/11 12:44:20;;;;;;;8.23;7.40;;;20.70;99.90;;;;;;5000834;28;20311;-51
2021/09/11 12:46:51;;;;;;;10.80;7.87;;;20.70;99.90;;;;;;5003113;28;20590;-51